createdAt,value
2022-10-17T00:01:02.752Z,11.85
2022-10-17T00:03:36.546Z,11.84
2022-10-17T00:06:11.071Z,11.84
2022-10-17T00:08:40.957Z,11.83
2022-10-17T00:11:16.843Z,11.83
2022-10-17T00:13:46.077Z,11.82
2022-10-17T00:16:14.223Z,11.82
2022-10-17T00:18:41.747Z,11.77
2022-10-17T00:21:16.378Z,11.71
2022-10-17T00:23:44.413Z,11.71
2022-10-17T00:26:12.388Z,11.71
2022-10-17T00:28:40.199Z,11.70
2022-10-17T00:31:08.286Z,11.67
2022-10-17T00:33:36.175Z,11.69
2022-10-17T00:36:06.314Z,11.67
2022-10-17T00:38:37.173Z,11.62
2022-10-17T00:41:05.815Z,11.59
2022-10-17T00:43:49.259Z,11.57
2022-10-17T00:46:17.130Z,11.58
2022-10-17T00:48:45.491Z,11.59
2022-10-17T00:51:13.519Z,11.61
2022-10-17T00:53:41.495Z,11.64
2022-10-17T00:56:09.050Z,11.67
2022-10-17T00:58:36.968Z,11.68
2022-10-17T01:01:06.000Z,11.70
2022-10-17T01:03:33.824Z,11.71
2022-10-17T01:06:01.592Z,11.73
2022-10-17T01:08:29.471Z,11.70
2022-10-17T01:11:12.534Z,11.68
2022-10-17T01:13:49.725Z,11.67
2022-10-17T01:16:33.278Z,11.67
2022-10-17T01:19:09.703Z,11.67
2022-10-17T01:21:41.788Z,11.66
2022-10-17T01:24:37.586Z,11.65
2022-10-17T01:27:37.431Z,11.61
2022-10-17T01:30:26.661Z,11.56
2022-10-17T01:32:59.217Z,11.49
2022-10-17T01:35:41.026Z,11.43
2022-10-17T01:38:19.148Z,11.36
2022-10-17T01:40:56.521Z,11.29
2022-10-17T01:43:44.876Z,11.25
2022-10-17T01:46:26.902Z,11.23
2022-10-17T01:48:58.661Z,11.13
2022-10-17T01:51:31.634Z,11.09
2022-10-17T01:54:06.680Z,11.08
2022-10-17T01:56:38.421Z,11.05
2022-10-17T01:59:14.903Z,11.01
2022-10-17T02:01:44.919Z,11.00
2022-10-17T02:04:12.646Z,10.99
2022-10-17T02:06:40.221Z,11.03
2022-10-17T02:09:19.184Z,11.12
2022-10-17T02:12:04.352Z,11.23
2022-10-17T02:14:49.386Z,11.34
2022-10-17T02:17:49.961Z,11.39
2022-10-17T02:20:26.417Z,11.46
2022-10-17T02:23:09.033Z,11.50
2022-10-17T02:25:43.767Z,11.50
2022-10-17T02:28:20.291Z,11.53
2022-10-17T02:30:54.447Z,11.56
2022-10-17T02:33:28.024Z,11.57
2022-10-17T02:36:03.021Z,11.59
2022-10-17T02:38:32.466Z,11.60
2022-10-17T02:41:00.982Z,11.61
2022-10-17T02:43:29.383Z,11.65
2022-10-17T02:45:58.941Z,11.70
2022-10-17T02:48:37.394Z,11.75
2022-10-17T02:51:16.999Z,11.76
2022-10-17T02:54:03.071Z,11.79
2022-10-17T02:56:37.112Z,11.80
2022-10-17T02:59:09.269Z,11.82
2022-10-17T03:01:37.144Z,11.84
2022-10-17T03:04:11.892Z,11.88
2022-10-17T03:06:41.180Z,11.92
2022-10-17T03:09:09.495Z,11.93
2022-10-17T03:11:38.339Z,11.93
2022-10-17T03:14:07.217Z,11.95
2022-10-17T03:16:34.727Z,11.98
2022-10-17T03:19:02.390Z,12.03
2022-10-17T03:21:30.238Z,12.08
2022-10-17T03:23:58.438Z,12.04
2022-10-17T03:26:26.000Z,12.02
2022-10-17T03:28:54.571Z,12.01
2022-10-17T03:31:23.188Z,12.03
2022-10-17T03:33:51.442Z,12.07
2022-10-17T03:36:20.126Z,12.11
2022-10-17T03:38:48.206Z,12.12
2022-10-17T03:41:17.221Z,12.11
2022-10-17T03:43:44.822Z,12.12
2022-10-17T03:46:13.088Z,12.12
2022-10-17T03:48:40.689Z,12.12
2022-10-17T03:51:10.304Z,12.11
2022-10-17T03:53:42.644Z,12.08
2022-10-17T03:56:18.134Z,12.03
2022-10-17T03:58:49.051Z,12.01
2022-10-17T04:01:18.432Z,12.00
2022-10-17T04:03:52.822Z,11.96
2022-10-17T04:06:21.439Z,11.94
2022-10-17T04:08:49.690Z,11.94
2022-10-17T04:11:27.990Z,11.96
2022-10-17T04:13:59.620Z,11.99
2022-10-17T04:16:28.577Z,12.02
2022-10-17T04:19:00.676Z,12.03
2022-10-17T04:21:31.146Z,12.08
2022-10-17T04:24:01.932Z,12.12
2022-10-17T04:26:43.434Z,12.09
2022-10-17T04:29:11.607Z,12.00
2022-10-17T04:31:39.852Z,11.91
2022-10-17T04:34:23.463Z,11.82
2022-10-17T04:36:51.901Z,11.83
2022-10-17T04:39:19.925Z,11.88
2022-10-17T04:41:47.703Z,11.93
2022-10-17T04:44:15.661Z,11.95
2022-10-17T04:46:47.961Z,11.96
2022-10-17T04:49:15.511Z,11.98
2022-10-17T04:51:44.248Z,12.00
2022-10-17T04:54:19.621Z,12.01
2022-10-17T04:56:50.113Z,12.05
2022-10-17T04:59:17.773Z,12.08
2022-10-17T05:01:45.590Z,12.13
2022-10-17T05:04:13.977Z,12.15
2022-10-17T05:06:41.613Z,12.18
2022-10-17T05:09:25.318Z,12.21
2022-10-17T05:11:53.378Z,12.21
2022-10-17T05:14:20.989Z,12.20
2022-10-17T05:16:49.284Z,12.22
2022-10-17T05:19:18.322Z,12.19
2022-10-17T05:21:47.591Z,12.17
2022-10-17T05:24:15.456Z,12.16
2022-10-17T05:26:43.020Z,12.20
2022-10-17T05:29:11.004Z,12.22
2022-10-17T05:31:42.040Z,12.20
2022-10-17T05:34:11.623Z,12.15
2022-10-17T05:36:42.457Z,12.09
2022-10-17T05:39:14.666Z,12.06
2022-10-17T05:41:42.369Z,12.05
2022-10-17T05:44:11.362Z,12.02
2022-10-17T05:46:41.150Z,12.03
2022-10-17T05:49:19.803Z,12.06
2022-10-17T05:51:58.655Z,12.07
2022-10-17T05:54:26.924Z,12.09
2022-10-17T05:56:55.635Z,12.13
2022-10-17T05:59:26.850Z,12.13
2022-10-17T06:01:58.956Z,12.16
2022-10-17T06:04:27.869Z,12.21
2022-10-17T06:06:56.244Z,12.30
2022-10-17T06:09:24.320Z,12.34
2022-10-17T06:11:54.425Z,12.39
2022-10-17T06:14:22.004Z,12.43
2022-10-17T06:16:52.826Z,12.45
2022-10-17T06:19:21.816Z,12.49
2022-10-17T06:21:49.982Z,12.53
2022-10-17T06:24:28.560Z,12.53
2022-10-17T06:26:57.794Z,12.54
2022-10-17T06:29:25.630Z,12.53
2022-10-17T06:31:56.700Z,12.50
2022-10-17T06:34:25.100Z,12.53
2022-10-17T06:36:53.259Z,12.56
2022-10-17T06:39:21.118Z,12.61
2022-10-17T06:42:04.462Z,12.65
2022-10-17T06:44:46.912Z,12.68
2022-10-17T06:47:33.290Z,12.77
2022-10-17T06:50:06.932Z,12.87
2022-10-17T06:52:52.071Z,12.96
2022-10-17T06:55:36.721Z,13.02
2022-10-17T06:58:20.219Z,13.03
2022-10-17T07:01:02.983Z,13.04
2022-10-17T07:03:31.787Z,13.05
2022-10-17T07:05:59.592Z,13.08
2022-10-17T07:08:28.724Z,13.15
2022-10-17T07:10:59.082Z,13.25
2022-10-17T07:13:27.818Z,13.34
2022-10-17T07:16:02.617Z,13.42
2022-10-17T07:18:32.558Z,13.48
2022-10-17T07:21:00.723Z,13.55
2022-10-17T07:23:29.547Z,13.59
2022-10-17T07:26:02.318Z,13.69
2022-10-17T07:28:30.682Z,13.77
2022-10-17T07:31:08.193Z,13.84
2022-10-17T07:33:36.207Z,13.98
2022-10-17T07:36:05.520Z,14.08
2022-10-17T07:38:34.191Z,14.22
2022-10-17T07:41:05.252Z,14.34
2022-10-17T07:43:34.223Z,14.45
2022-10-17T07:46:05.224Z,14.53
2022-10-17T07:48:33.764Z,14.62
2022-10-17T07:51:04.092Z,14.70
2022-10-17T07:53:32.058Z,14.82
2022-10-17T07:56:03.076Z,14.90
2022-10-17T07:58:31.569Z,14.92
2022-10-17T08:01:10.804Z,14.93
2022-10-17T08:03:47.774Z,14.97
2022-10-17T08:06:15.756Z,15.00
2022-10-17T08:08:44.097Z,15.01
2022-10-17T08:11:14.068Z,15.03
2022-10-17T08:13:42.623Z,15.06
2022-10-17T08:16:13.188Z,15.13
2022-10-17T08:18:42.623Z,15.19
2022-10-17T08:21:12.993Z,15.27
2022-10-17T08:23:40.809Z,15.32
2022-10-17T08:26:10.845Z,15.37
2022-10-17T08:28:40.511Z,15.45
2022-10-17T08:31:11.441Z,15.50
2022-10-17T08:33:39.913Z,15.61
2022-10-17T08:36:08.612Z,15.71
2022-10-17T08:38:41.438Z,15.74
2022-10-17T08:41:42.901Z,15.79
2022-10-17T08:44:26.434Z,15.82
2022-10-17T08:46:58.854Z,15.87
2022-10-17T08:49:47.199Z,15.91
2022-10-17T08:52:54.178Z,15.97
2022-10-17T08:55:34.147Z,16.01
2022-10-17T08:58:01.856Z,16.07
2022-10-17T09:00:32.191Z,16.13
2022-10-17T09:03:18.839Z,16.22
2022-10-17T09:05:53.678Z,16.34
2022-10-17T09:08:48.934Z,16.45
2022-10-17T09:11:50.392Z,16.56
2022-10-17T09:14:49.907Z,16.68
2022-10-17T09:17:40.405Z,16.81
2022-10-17T09:20:14.870Z,16.94
2022-10-17T09:22:59.743Z,17.05
2022-10-17T09:25:40.373Z,17.17
2022-10-17T09:28:17.073Z,17.31
2022-10-17T09:30:51.592Z,17.42
2022-10-17T09:33:35.613Z,17.54
2022-10-17T09:36:20.274Z,17.63
2022-10-17T09:38:51.042Z,17.65
2022-10-17T09:44:33.892Z,17.80
2022-10-17T09:47:20.633Z,17.87
2022-10-17T09:49:50.012Z,17.90
2022-10-17T09:52:30.625Z,17.91
2022-10-17T09:58:05.280Z,17.89
2022-10-17T10:00:37.833Z,17.89
2022-10-17T10:03:23.875Z,17.91
2022-10-17T10:06:10.100Z,17.88
2022-10-17T10:08:48.823Z,17.90
2022-10-17T10:11:18.008Z,17.95
2022-10-17T10:13:48.222Z,18.00
2022-10-17T10:16:31.463Z,18.05
2022-10-17T10:18:59.511Z,18.10
2022-10-17T10:21:27.627Z,18.13
2022-10-17T10:24:14.187Z,18.15
2022-10-17T10:26:47.587Z,18.17
2022-10-17T10:29:31.325Z,18.23
2022-10-17T10:32:11.898Z,18.28
2022-10-17T10:34:48.899Z,18.33
2022-10-17T10:37:18.692Z,18.41
2022-10-17T10:39:52.433Z,18.47
2022-10-17T10:42:27.395Z,18.52
2022-10-17T10:44:59.610Z,18.57
2022-10-17T10:47:29.594Z,18.64
2022-10-17T10:50:21.233Z,18.71
2022-10-17T10:53:25.814Z,18.80
2022-10-17T10:55:58.428Z,18.89
2022-10-17T10:58:58.044Z,18.94
2022-10-17T11:01:34.285Z,18.99
2022-10-17T11:04:07.850Z,19.02
2022-10-17T11:06:40.311Z,19.05
2022-10-17T11:09:29.957Z,19.10
2022-10-17T11:12:10.457Z,19.14
2022-10-17T11:14:52.652Z,19.18
2022-10-17T11:17:29.271Z,19.22
2022-10-17T11:20:28.835Z,19.24
2022-10-17T11:23:09.462Z,19.29
2022-10-17T11:25:40.198Z,19.34
2022-10-17T11:28:17.239Z,19.38
2022-10-17T11:33:18.288Z,19.42
2022-10-17T11:35:49.718Z,19.43
2022-10-17T11:38:24.997Z,19.45
2022-10-17T11:40:57.895Z,19.48
2022-10-17T11:43:51.511Z,19.50
2022-10-17T11:46:24.803Z,19.54
2022-10-17T11:48:58.455Z,19.56
2022-10-17T11:54:18.807Z,19.62
2022-10-17T11:56:54.086Z,19.65
2022-10-17T11:59:40.455Z,19.67
2022-10-17T12:02:25.858Z,19.72
2022-10-17T12:05:05.537Z,19.76
2022-10-17T12:07:45.249Z,19.84
2022-10-17T12:10:31.624Z,19.92
2022-10-17T12:13:36.116Z,19.98
2022-10-17T12:16:19.834Z,20.04
2022-10-17T12:18:48.509Z,20.06
2022-10-17T12:21:16.154Z,20.09
2022-10-17T12:23:53.100Z,20.10
2022-10-17T12:26:29.068Z,20.10
2022-10-17T12:28:57.632Z,20.09
2022-10-17T12:31:32.695Z,20.09
2022-10-17T12:34:04.007Z,20.10
2022-10-17T12:36:31.492Z,20.13
2022-10-17T12:39:01.853Z,20.20
2022-10-17T12:41:46.411Z,20.33
2022-10-17T12:44:14.141Z,20.49
2022-10-17T12:46:48.225Z,20.66
2022-10-17T12:49:37.545Z,20.84
2022-10-17T12:52:22.787Z,21.02
2022-10-17T12:55:14.371Z,21.31
2022-10-17T12:58:08.066Z,21.73
2022-10-17T13:00:59.616Z,22.20
2022-10-17T13:03:34.897Z,22.38
2022-10-17T13:06:06.654Z,22.28
2022-10-17T13:08:43.324Z,22.23
2022-10-17T13:11:13.580Z,22.26
2022-10-17T13:13:50.264Z,22.34
2022-10-17T13:16:35.198Z,22.39
2022-10-17T13:19:12.503Z,22.39
2022-10-17T13:21:50.773Z,22.35
2022-10-17T13:24:40.036Z,22.28
2022-10-17T13:27:27.673Z,22.18
2022-10-17T13:29:57.491Z,22.08
2022-10-17T13:32:27.697Z,22.13
2022-10-17T13:35:13.091Z,22.15
2022-10-17T13:37:50.228Z,22.05
2022-10-17T13:40:44.007Z,22.01
2022-10-17T13:43:24.155Z,22.06
2022-10-17T13:45:55.108Z,22.15
2022-10-17T13:48:28.461Z,22.36
2022-10-17T13:51:03.066Z,22.58
2022-10-17T13:53:44.019Z,22.68
2022-10-17T13:56:28.235Z,22.83
2022-10-17T13:59:01.137Z,23.15
2022-10-17T14:01:29.575Z,23.25
2022-10-17T14:04:08.331Z,23.42
2022-10-17T14:06:45.114Z,24.00
2022-10-17T14:09:18.569Z,24.50
2022-10-17T14:12:01.592Z,24.82
2022-10-17T14:14:30.409Z,24.92
2022-10-17T14:17:25.699Z,24.55
2022-10-17T14:20:26.503Z,24.10
2022-10-17T14:23:21.000Z,23.62
2022-10-17T14:25:40.953Z,23.29
2022-10-17T14:28:12.279Z,23.19
2022-10-17T14:30:56.370Z,23.18
2022-10-17T14:33:30.991Z,23.62
2022-10-17T14:36:00.844Z,23.89
2022-10-17T14:38:30.184Z,23.46
2022-10-17T14:41:41.274Z,23.03
2022-10-17T14:44:08.617Z,22.52
2022-10-17T14:46:37.614Z,22.11
2022-10-17T14:49:15.214Z,21.77
2022-10-17T14:52:28.315Z,21.46
2022-10-17T14:54:57.759Z,21.11
2022-10-17T14:57:41.917Z,20.92
2022-10-17T15:00:17.535Z,20.71
2022-10-17T15:02:46.561Z,20.48
2022-10-17T15:05:15.454Z,20.24
2022-10-17T15:07:43.608Z,20.00
2022-10-17T15:10:30.705Z,19.82
2022-10-17T15:13:26.115Z,19.61
2022-10-17T15:15:51.688Z,19.40
2022-10-17T15:18:19.693Z,19.23
2022-10-17T15:20:50.092Z,19.08
2022-10-17T15:23:23.900Z,18.90
2022-10-17T15:25:51.395Z,18.73
2022-10-17T15:28:18.899Z,18.60
2022-10-17T15:30:46.396Z,18.46
2022-10-17T15:33:13.918Z,18.36
2022-10-17T15:35:43.783Z,18.29
2022-10-17T15:38:16.767Z,18.21
2022-10-17T15:40:44.333Z,18.13
2022-10-17T15:43:13.402Z,18.03
2022-10-17T15:45:42.610Z,17.93
2022-10-17T15:48:19.196Z,17.82
2022-10-17T15:50:46.726Z,17.69
2022-10-17T15:53:14.439Z,17.55
2022-10-17T15:55:42.015Z,17.43
2022-10-17T15:58:16.135Z,17.32
2022-10-17T16:00:45.365Z,17.19
2022-10-17T16:03:14.170Z,17.09
2022-10-17T16:05:41.875Z,17.04
2022-10-17T16:08:09.412Z,16.98
2022-10-17T16:10:40.146Z,16.89
2022-10-17T16:13:17.322Z,16.84
2022-10-17T16:15:44.907Z,16.76
2022-10-17T16:18:12.570Z,16.69
2022-10-17T16:20:40.690Z,16.61
2022-10-17T16:23:08.376Z,16.54
2022-10-17T16:25:35.963Z,16.46
2022-10-17T16:28:04.168Z,16.37
2022-10-17T16:30:32.852Z,16.33
2022-10-17T16:33:00.437Z,16.26
2022-10-17T16:35:33.418Z,16.20
2022-10-17T16:38:06.919Z,16.16
2022-10-17T16:40:34.764Z,16.10
2022-10-17T16:43:02.326Z,16.05
2022-10-17T16:45:30.489Z,16.00
2022-10-17T16:47:58.159Z,15.95
2022-10-17T16:50:26.032Z,15.90
2022-10-17T16:52:53.579Z,15.86
2022-10-17T16:55:21.259Z,15.81
2022-10-17T16:57:49.289Z,15.77
2022-10-17T17:00:17.916Z,15.74
2022-10-17T17:02:47.793Z,15.72
2022-10-17T17:05:15.710Z,15.68
2022-10-17T17:07:43.280Z,15.63
2022-10-17T17:10:10.930Z,15.61
2022-10-17T17:12:38.473Z,15.56
2022-10-17T17:15:06.224Z,15.51
2022-10-17T17:17:49.625Z,15.44
2022-10-17T17:20:19.112Z,15.38
2022-10-17T17:22:46.605Z,15.33
2022-10-17T17:25:14.224Z,15.30
2022-10-17T17:27:41.825Z,15.27
2022-10-17T17:30:10.010Z,15.24
2022-10-17T17:32:37.565Z,15.23
2022-10-17T17:35:05.597Z,15.20
2022-10-17T17:37:33.373Z,15.18
2022-10-17T17:40:01.081Z,15.15
2022-10-17T17:42:28.662Z,15.11
2022-10-17T17:44:56.179Z,15.09
2022-10-17T17:47:23.749Z,15.05
2022-10-17T17:49:51.261Z,15.02
2022-10-17T17:52:19.117Z,14.99
2022-10-17T17:54:46.639Z,14.97
2022-10-17T17:57:14.186Z,14.97
2022-10-17T17:59:41.730Z,14.98
2022-10-17T18:02:11.074Z,14.96
2022-10-17T18:04:38.743Z,14.94
2022-10-17T18:07:06.399Z,14.91
2022-10-17T18:09:34.030Z,14.88
2022-10-17T18:12:01.560Z,14.86
2022-10-17T18:14:29.076Z,14.84
2022-10-17T18:16:56.568Z,14.82
2022-10-17T18:19:24.424Z,14.80
2022-10-17T18:21:52.027Z,14.78
2022-10-17T18:24:19.729Z,14.76
2022-10-17T18:26:47.282Z,14.74
2022-10-17T18:29:14.853Z,14.71
2022-10-17T18:31:42.956Z,14.68
2022-10-17T18:34:10.773Z,14.65
2022-10-17T18:36:38.383Z,14.62
2022-10-17T18:39:06.334Z,14.62
2022-10-17T18:41:34.124Z,14.61
2022-10-17T18:44:03.085Z,14.60
2022-10-17T18:46:40.876Z,14.60
2022-10-17T18:49:11.371Z,14.60
2022-10-17T18:51:39.582Z,14.63
2022-10-17T18:54:13.156Z,14.65
2022-10-17T18:56:40.703Z,14.67
2022-10-17T18:59:08.278Z,14.66
2022-10-17T19:01:35.947Z,14.67
2022-10-17T19:04:03.725Z,14.65
2022-10-17T19:06:32.150Z,14.61
2022-10-17T19:09:02.057Z,14.58
2022-10-17T19:11:31.608Z,14.56
2022-10-17T19:14:02.068Z,14.55
2022-10-17T19:16:33.100Z,14.54
2022-10-17T19:19:04.863Z,14.52
2022-10-17T19:21:33.378Z,14.51
2022-10-17T19:24:04.088Z,14.52
2022-10-17T19:26:35.239Z,14.53
2022-10-17T19:29:04.654Z,14.52
2022-10-17T19:31:34.130Z,14.52
2022-10-17T19:34:02.026Z,14.50
2022-10-17T19:36:33.344Z,14.50
2022-10-17T19:39:07.368Z,14.50
2022-10-17T19:41:36.310Z,14.50
2022-10-17T19:44:04.050Z,14.50
2022-10-17T19:46:33.977Z,14.52
2022-10-17T19:49:02.464Z,14.54
2022-10-17T19:51:30.957Z,14.56
2022-10-17T19:54:02.474Z,14.58
2022-10-17T19:56:32.100Z,14.59
2022-10-17T19:58:59.872Z,14.58
2022-10-17T20:01:29.731Z,14.56
2022-10-17T20:03:57.421Z,14.53
2022-10-17T20:06:24.961Z,14.51
2022-10-17T20:08:54.066Z,14.48
2022-10-17T20:11:24.112Z,14.47
2022-10-17T20:13:52.800Z,14.46
2022-10-17T20:16:26.012Z,14.45
2022-10-17T20:18:55.887Z,14.43
2022-10-17T20:21:28.501Z,14.43
2022-10-17T20:23:56.150Z,14.42
2022-10-17T20:26:37.146Z,14.39
2022-10-17T20:29:11.571Z,14.36
2022-10-17T20:31:40.750Z,14.34
2022-10-17T20:34:12.554Z,14.32
2022-10-17T20:36:40.888Z,14.31
2022-10-17T20:39:12.055Z,14.30
2022-10-17T20:41:39.978Z,14.31
2022-10-17T20:44:07.604Z,14.31
2022-10-17T20:46:37.642Z,14.29
2022-10-17T20:49:08.669Z,14.28
2022-10-17T20:51:36.256Z,14.24
2022-10-17T20:54:04.363Z,14.22
2022-10-17T20:56:33.676Z,14.19
2022-10-17T20:59:04.882Z,14.16
2022-10-17T21:01:34.483Z,14.13
2022-10-17T21:04:27.075Z,14.11
2022-10-17T21:06:51.999Z,14.08
2022-10-17T21:09:20.217Z,14.04
2022-10-17T21:11:51.119Z,14.02
2022-10-17T21:14:19.006Z,13.99
2022-10-17T21:16:47.097Z,13.96
2022-10-17T21:19:16.094Z,13.93
2022-10-17T21:21:46.042Z,13.90
2022-10-17T21:24:17.294Z,13.86
2022-10-17T21:26:46.283Z,13.84
2022-10-17T21:29:14.227Z,13.80
2022-10-17T21:31:44.697Z,13.78
2022-10-17T21:34:18.672Z,13.76
2022-10-17T21:36:46.426Z,13.73
2022-10-17T21:39:14.918Z,13.72
2022-10-17T21:41:44.270Z,13.70
2022-10-17T21:44:15.247Z,13.69
2022-10-17T21:46:43.427Z,13.68
2022-10-17T21:49:12.846Z,13.66
2022-10-17T21:51:40.851Z,13.66
2022-10-17T21:54:08.676Z,13.64
2022-10-17T21:56:36.550Z,13.65
2022-10-17T21:59:06.238Z,13.67
2022-10-17T22:01:37.157Z,13.67
2022-10-17T22:04:07.812Z,13.68
2022-10-17T22:06:41.152Z,13.67
2022-10-17T22:09:12.721Z,13.67
2022-10-17T22:11:41.232Z,13.66
2022-10-17T22:14:12.865Z,13.68
2022-10-17T22:16:41.233Z,13.68
2022-10-17T22:19:10.379Z,13.68
2022-10-17T22:21:37.910Z,13.67
2022-10-17T22:24:08.636Z,13.66
2022-10-17T22:26:37.833Z,13.63
2022-10-17T22:29:06.783Z,13.60
2022-10-17T22:31:35.071Z,13.56
2022-10-17T22:34:05.235Z,13.53
2022-10-17T22:36:33.713Z,13.50
2022-10-17T22:39:01.461Z,13.48
2022-10-17T22:41:28.968Z,13.46
2022-10-17T22:43:56.498Z,13.45
2022-10-17T22:46:24.207Z,13.45
2022-10-17T22:48:51.708Z,13.45
2022-10-17T22:51:19.718Z,13.46
2022-10-17T22:53:47.376Z,13.48
2022-10-17T22:56:18.543Z,13.49
2022-10-17T22:58:46.179Z,13.49
2022-10-17T23:01:17.346Z,13.51
2022-10-17T23:03:45.071Z,13.51
2022-10-17T23:06:13.499Z,13.52
2022-10-17T23:08:41.778Z,13.51
2022-10-17T23:11:10.014Z,13.50
2022-10-17T23:13:39.704Z,13.48
2022-10-17T23:16:08.375Z,13.46
2022-10-17T23:18:37.876Z,13.43
2022-10-17T23:21:06.319Z,13.40
2022-10-17T23:23:33.884Z,13.37
2022-10-17T23:26:12.705Z,13.34
2022-10-17T23:28:41.764Z,13.31
2022-10-17T23:31:20.539Z,13.29
2022-10-17T23:33:49.727Z,13.26
2022-10-17T23:36:19.812Z,13.22
2022-10-17T23:38:48.248Z,13.18
2022-10-17T23:41:16.575Z,13.17
2022-10-17T23:43:44.552Z,13.15
2022-10-17T23:46:12.468Z,13.15
2022-10-17T23:48:41.052Z,13.15
2022-10-17T23:51:09.625Z,13.13
2022-10-17T23:53:38.121Z,13.12
2022-10-17T23:56:07.752Z,13.10
2022-10-17T23:58:36.077Z,13.09
